sensor_id;sensor_type;location;lat;lon;timestamp;temperature;humidity
6841;DHT22;3458;53.678;14.080;2023-11-22T00:02:20;3.10;91.30
6841;DHT22;3458;53.678;14.080;2023-11-22T00:04:45;3.10;91.40
6841;DHT22;3458;53.678;14.080;2023-11-22T00:07:11;3.00;91.50
6841;DHT22;3458;53.678;14.080;2023-11-22T00:09:37;3.00;91.60
6841;DHT22;3458;53.678;14.080;2023-11-22T00:12:03;3.00;91.90
6841;DHT22;3458;53.678;14.080;2023-11-22T00:14:28;3.00;91.90
6841;DHT22;3458;53.678;14.080;2023-11-22T00:16:54;2.90;92.10
6841;DHT22;3458;53.678;14.080;2023-11-22T00:19:19;2.90;92.40
6841;DHT22;3458;53.678;14.080;2023-11-22T00:21:48;2.90;92.70
6841;DHT22;3458;53.678;14.080;2023-11-22T00:24:13;2.90;92.80
6841;DHT22;3458;53.678;14.080;2023-11-22T00:26:39;2.90;92.90
6841;DHT22;3458;53.678;14.080;2023-11-22T00:29:04;2.90;93.10
6841;DHT22;3458;53.678;14.080;2023-11-22T00:31:30;2.80;93.20
6841;DHT22;3458;53.678;14.080;2023-11-22T00:33:56;2.80;93.60
6841;DHT22;3458;53.678;14.080;2023-11-22T00:36:21;2.80;93.70
6841;DHT22;3458;53.678;14.080;2023-11-22T00:38:47;2.80;93.80
6841;DHT22;3458;53.678;14.080;2023-11-22T00:41:13;2.70;94.00
6841;DHT22;3458;53.678;14.080;2023-11-22T00:43:40;2.70;94.10
6841;DHT22;3458;53.678;14.080;2023-11-22T00:46:05;2.70;94.30
6841;DHT22;3458;53.678;14.080;2023-11-22T00:48:31;2.70;94.30
6841;DHT22;3458;53.678;14.080;2023-11-22T00:50:57;2.70;94.40
6841;DHT22;3458;53.678;14.080;2023-11-22T00:53:22;2.70;94.60
6841;DHT22;3458;53.678;14.080;2023-11-22T00:55:48;2.70;94.80
6841;DHT22;3458;53.678;14.080;2023-11-22T00:58:14;2.60;95.00
6841;DHT22;3458;53.678;14.080;2023-11-22T01:00:40;2.60;95.10
6841;DHT22;3458;53.678;14.080;2023-11-22T01:03:06;2.60;95.10
6841;DHT22;3458;53.678;14.080;2023-11-22T01:05:31;2.60;95.30
6841;DHT22;3458;53.678;14.080;2023-11-22T01:07:57;2.60;95.50
6841;DHT22;3458;53.678;14.080;2023-11-22T01:10:22;2.50;95.60
6841;DHT22;3458;53.678;14.080;2023-11-22T01:12:48;2.50;95.50
6841;DHT22;3458;53.678;14.080;2023-11-22T01:15:13;2.50;95.70
6841;DHT22;3458;53.678;14.080;2023-11-22T01:17:39;2.50;96.00
6841;DHT22;3458;53.678;14.080;2023-11-22T01:20:05;2.40;96.10
6841;DHT22;3458;53.678;14.080;2023-11-22T01:22:31;2.40;96.10
6841;DHT22;3458;53.678;14.080;2023-11-22T01:24:57;2.40;96.30
6841;DHT22;3458;53.678;14.080;2023-11-22T01:27:22;2.40;96.30
6841;DHT22;3458;53.678;14.080;2023-11-22T01:29:49;2.30;96.50
6841;DHT22;3458;53.678;14.080;2023-11-22T01:32:14;2.30;96.50
6841;DHT22;3458;53.678;14.080;2023-11-22T01:34:42;2.30;97.00
6841;DHT22;3458;53.678;14.080;2023-11-22T01:37:07;2.30;96.70
6841;DHT22;3458;53.678;14.080;2023-11-22T01:39:33;2.30;96.90
6841;DHT22;3458;53.678;14.080;2023-11-22T01:41:58;2.20;97.00
6841;DHT22;3458;53.678;14.080;2023-11-22T01:44:24;2.20;97.10
6841;DHT22;3458;53.678;14.080;2023-11-22T01:46:52;2.20;97.20
6841;DHT22;3458;53.678;14.080;2023-11-22T01:49:17;2.10;97.40
6841;DHT22;3458;53.678;14.080;2023-11-22T01:51:43;2.10;97.70
6841;DHT22;3458;53.678;14.080;2023-11-22T01:54:10;2.10;97.70
6841;DHT22;3458;53.678;14.080;2023-11-22T01:56:37;2.10;97.80
6841;DHT22;3458;53.678;14.080;2023-11-22T01:59:04;2.00;97.70
6841;DHT22;3458;53.678;14.080;2023-11-22T02:01:30;2.00;97.90
6841;DHT22;3458;53.678;14.080;2023-11-22T02:03:56;2.00;98.40
6841;DHT22;3458;53.678;14.080;2023-11-22T02:06:21;2.00;98.10
6841;DHT22;3458;53.678;14.080;2023-11-22T02:08:47;2.00;98.10
6841;DHT22;3458;53.678;14.080;2023-11-22T02:11:17;1.90;98.30
6841;DHT22;3458;53.678;14.080;2023-11-22T02:13:42;1.90;98.50
6841;DHT22;3458;53.678;14.080;2023-11-22T02:16:08;1.90;98.50
6841;DHT22;3458;53.678;14.080;2023-11-22T02:18:33;1.90;98.60
6841;DHT22;3458;53.678;14.080;2023-11-22T02:21:00;1.80;98.70
6841;DHT22;3458;53.678;14.080;2023-11-22T02:23:26;1.90;99.10
6841;DHT22;3458;53.678;14.080;2023-11-22T02:25:51;1.80;99.20
6841;DHT22;3458;53.678;14.080;2023-11-22T02:28:17;1.80;99.60
6841;DHT22;3458;53.678;14.080;2023-11-22T02:30:43;1.80;99.40
6841;DHT22;3458;53.678;14.080;2023-11-22T02:33:08;1.70;99.20
6841;DHT22;3458;53.678;14.080;2023-11-22T02:35:34;1.70;99.30
6841;DHT22;3458;53.678;14.080;2023-11-22T02:38:00;1.70;99.50
6841;DHT22;3458;53.678;14.080;2023-11-22T02:40:26;1.70;99.50
6841;DHT22;3458;53.678;14.080;2023-11-22T02:42:53;1.70;99.80
6841;DHT22;3458;53.678;14.080;2023-11-22T02:45:26;1.60;99.90
6841;DHT22;3458;53.678;14.080;2023-11-22T02:47:52;1.60;99.90
6841;DHT22;3458;53.678;14.080;2023-11-22T02:50:18;1.60;99.90
6841;DHT22;3458;53.678;14.080;2023-11-22T02:52:43;1.60;99.90
6841;DHT22;3458;53.678;14.080;2023-11-22T02:55:09;1.60;99.90
6841;DHT22;3458;53.678;14.080;2023-11-22T02:57:35;1.60;99.90
6841;DHT22;3458;53.678;14.080;2023-11-22T03:00:02;1.60;99.90
6841;DHT22;3458;53.678;14.080;2023-11-22T03:02:30;1.60;99.90
6841;DHT22;3458;53.678;14.080;2023-11-22T03:04:57;1.50;99.90
6841;DHT22;3458;53.678;14.080;2023-11-22T03:07:23;1.50;99.90
6841;DHT22;3458;53.678;14.080;2023-11-22T03:09:49;1.50;99.90
6841;DHT22;3458;53.678;14.080;2023-11-22T03:12:16;1.50;99.90
6841;DHT22;3458;53.678;14.080;2023-11-22T03:14:42;1.40;99.90
6841;DHT22;3458;53.678;14.080;2023-11-22T03:17:07;1.40;99.90
6841;DHT22;3458;53.678;14.080;2023-11-22T03:19:33;1.40;99.90
6841;DHT22;3458;53.678;14.080;2023-11-22T03:22:00;1.40;99.90
6841;DHT22;3458;53.678;14.080;2023-11-22T03:24:25;1.40;99.90
6841;DHT22;3458;53.678;14.080;2023-11-22T03:26:51;1.40;99.90
6841;DHT22;3458;53.678;14.080;2023-11-22T03:29:18;1.40;99.90
6841;DHT22;3458;53.678;14.080;2023-11-22T03:31:43;1.40;99.90
6841;DHT22;3458;53.678;14.080;2023-11-22T03:34:09;1.40;99.90
6841;DHT22;3458;53.678;14.080;2023-11-22T03:36:34;1.30;99.90
6841;DHT22;3458;53.678;14.080;2023-11-22T03:39:00;1.40;99.90
6841;DHT22;3458;53.678;14.080;2023-11-22T03:41:25;1.40;99.90
6841;DHT22;3458;53.678;14.080;2023-11-22T03:43:51;1.30;99.90
6841;DHT22;3458;53.678;14.080;2023-11-22T03:46:16;1.30;99.90
6841;DHT22;3458;53.678;14.080;2023-11-22T03:48:42;1.30;99.90
6841;DHT22;3458;53.678;14.080;2023-11-22T03:51:08;1.30;99.90
6841;DHT22;3458;53.678;14.080;2023-11-22T03:53:33;1.30;99.90
6841;DHT22;3458;53.678;14.080;2023-11-22T03:55:59;1.30;99.90
6841;DHT22;3458;53.678;14.080;2023-11-22T03:58:25;1.30;99.90
6841;DHT22;3458;53.678;14.080;2023-11-22T04:00:51;1.20;99.90
6841;DHT22;3458;53.678;14.080;2023-11-22T04:03:18;1.20;99.90
6841;DHT22;3458;53.678;14.080;2023-11-22T04:05:44;1.20;99.90
6841;DHT22;3458;53.678;14.080;2023-11-22T04:08:09;1.20;99.90
6841;DHT22;3458;53.678;14.080;2023-11-22T04:10:35;1.20;99.90
6841;DHT22;3458;53.678;14.080;2023-11-22T04:13:00;1.20;99.90
6841;DHT22;3458;53.678;14.080;2023-11-22T04:15:26;1.10;99.90
6841;DHT22;3458;53.678;14.080;2023-11-22T04:17:52;1.10;99.90
6841;DHT22;3458;53.678;14.080;2023-11-22T04:20:20;1.10;99.90
6841;DHT22;3458;53.678;14.080;2023-11-22T04:22:45;1.10;99.90
6841;DHT22;3458;53.678;14.080;2023-11-22T04:25:11;1.10;99.90
6841;DHT22;3458;53.678;14.080;2023-11-22T04:27:40;1.00;99.90
6841;DHT22;3458;53.678;14.080;2023-11-22T04:30:07;1.00;99.90
6841;DHT22;3458;53.678;14.080;2023-11-22T04:32:40;1.00;99.90
6841;DHT22;3458;53.678;14.080;2023-11-22T04:35:07;1.00;99.90
6841;DHT22;3458;53.678;14.080;2023-11-22T04:37:32;1.00;99.90
6841;DHT22;3458;53.678;14.080;2023-11-22T04:40:01;1.00;99.90
6841;DHT22;3458;53.678;14.080;2023-11-22T04:42:28;0.90;99.90
6841;DHT22;3458;53.678;14.080;2023-11-22T04:44:54;0.90;99.90
6841;DHT22;3458;53.678;14.080;2023-11-22T04:47:20;0.90;99.90
6841;DHT22;3458;53.678;14.080;2023-11-22T04:49:47;0.90;99.90
6841;DHT22;3458;53.678;14.080;2023-11-22T04:52:13;0.80;99.90
6841;DHT22;3458;53.678;14.080;2023-11-22T04:54:39;0.80;99.90
6841;DHT22;3458;53.678;14.080;2023-11-22T04:57:04;0.80;99.90
6841;DHT22;3458;53.678;14.080;2023-11-22T04:59:31;0.80;99.90
6841;DHT22;3458;53.678;14.080;2023-11-22T05:01:56;0.80;99.90
6841;DHT22;3458;53.678;14.080;2023-11-22T05:04:22;0.80;99.90
6841;DHT22;3458;53.678;14.080;2023-11-22T05:06:47;0.80;99.90
6841;DHT22;3458;53.678;14.080;2023-11-22T05:09:13;0.80;99.90
6841;DHT22;3458;53.678;14.080;2023-11-22T05:11:39;0.80;99.90
6841;DHT22;3458;53.678;14.080;2023-11-22T05:14:06;0.70;99.90
6841;DHT22;3458;53.678;14.080;2023-11-22T05:16:32;0.70;99.90
6841;DHT22;3458;53.678;14.080;2023-11-22T05:18:59;0.70;99.90
6841;DHT22;3458;53.678;14.080;2023-11-22T05:21:24;0.70;99.90
6841;DHT22;3458;53.678;14.080;2023-11-22T05:23:50;0.60;99.90
6841;DHT22;3458;53.678;14.080;2023-11-22T05:26:15;0.60;99.90
6841;DHT22;3458;53.678;14.080;2023-11-22T05:28:41;0.60;99.90
6841;DHT22;3458;53.678;14.080;2023-11-22T05:31:06;0.60;99.90
6841;DHT22;3458;53.678;14.080;2023-11-22T05:33:32;0.60;99.90
6841;DHT22;3458;53.678;14.080;2023-11-22T05:35:58;0.60;99.90
6841;DHT22;3458;53.678;14.080;2023-11-22T05:38:23;0.60;99.90
6841;DHT22;3458;53.678;14.080;2023-11-22T05:40:51;0.60;99.90
6841;DHT22;3458;53.678;14.080;2023-11-22T05:43:16;0.60;99.90
6841;DHT22;3458;53.678;14.080;2023-11-22T05:45:43;0.50;99.90
6841;DHT22;3458;53.678;14.080;2023-11-22T05:48:08;0.50;99.90
6841;DHT22;3458;53.678;14.080;2023-11-22T05:50:34;0.50;99.90
6841;DHT22;3458;53.678;14.080;2023-11-22T05:52:59;0.50;99.90
6841;DHT22;3458;53.678;14.080;2023-11-22T05:55:25;0.50;99.90
6841;DHT22;3458;53.678;14.080;2023-11-22T05:57:51;0.50;99.90
6841;DHT22;3458;53.678;14.080;2023-11-22T06:00:16;0.50;99.90
6841;DHT22;3458;53.678;14.080;2023-11-22T06:02:41;0.50;99.90
6841;DHT22;3458;53.678;14.080;2023-11-22T06:05:07;0.50;99.90
6841;DHT22;3458;53.678;14.080;2023-11-22T06:07:33;0.50;99.90
6841;DHT22;3458;53.678;14.080;2023-11-22T06:09:58;0.50;99.90
6841;DHT22;3458;53.678;14.080;2023-11-22T06:12:24;0.50;99.90
6841;DHT22;3458;53.678;14.080;2023-11-22T06:14:49;0.50;99.90
6841;DHT22;3458;53.678;14.080;2023-11-22T06:17:15;0.50;99.90
6841;DHT22;3458;53.678;14.080;2023-11-22T06:19:40;0.40;99.90
6841;DHT22;3458;53.678;14.080;2023-11-22T06:22:09;0.40;99.90
6841;DHT22;3458;53.678;14.080;2023-11-22T06:24:34;0.40;99.90
6841;DHT22;3458;53.678;14.080;2023-11-22T06:27:02;0.40;99.90
6841;DHT22;3458;53.678;14.080;2023-11-22T06:29:27;0.40;99.90
6841;DHT22;3458;53.678;14.080;2023-11-22T06:31:53;0.40;99.90
6841;DHT22;3458;53.678;14.080;2023-11-22T06:34:19;0.40;99.90
6841;DHT22;3458;53.678;14.080;2023-11-22T06:36:44;0.30;99.90
6841;DHT22;3458;53.678;14.080;2023-11-22T06:39:10;0.30;99.90
6841;DHT22;3458;53.678;14.080;2023-11-22T06:41:40;0.30;99.90
6841;DHT22;3458;53.678;14.080;2023-11-22T06:44:06;0.30;99.90
6841;DHT22;3458;53.678;14.080;2023-11-22T06:46:31;0.30;99.90
6841;DHT22;3458;53.678;14.080;2023-11-22T06:48:57;0.30;99.90
6841;DHT22;3458;53.678;14.080;2023-11-22T06:51:24;0.30;99.90
6841;DHT22;3458;53.678;14.080;2023-11-22T06:53:49;0.30;99.90
6841;DHT22;3458;53.678;14.080;2023-11-22T06:56:15;0.30;99.90
6841;DHT22;3458;53.678;14.080;2023-11-22T06:58:40;0.40;99.90
6841;DHT22;3458;53.678;14.080;2023-11-22T07:01:06;0.40;99.90
6841;DHT22;3458;53.678;14.080;2023-11-22T07:03:32;0.40;99.90
6841;DHT22;3458;53.678;14.080;2023-11-22T07:05:58;0.40;99.90
6841;DHT22;3458;53.678;14.080;2023-11-22T07:08:24;0.30;99.90
6841;DHT22;3458;53.678;14.080;2023-11-22T07:10:51;0.30;99.90
6841;DHT22;3458;53.678;14.080;2023-11-22T07:13:18;0.40;99.90
6841;DHT22;3458;53.678;14.080;2023-11-22T07:15:43;0.30;99.90
6841;DHT22;3458;53.678;14.080;2023-11-22T07:18:09;0.40;99.90
6841;DHT22;3458;53.678;14.080;2023-11-22T07:20:35;0.40;99.90
6841;DHT22;3458;53.678;14.080;2023-11-22T07:23:01;0.40;99.90
6841;DHT22;3458;53.678;14.080;2023-11-22T07:25:27;0.40;99.90
6841;DHT22;3458;53.678;14.080;2023-11-22T07:27:54;0.40;99.90
6841;DHT22;3458;53.678;14.080;2023-11-22T07:30:20;0.40;99.90
6841;DHT22;3458;53.678;14.080;2023-11-22T07:32:51;0.40;99.90
6841;DHT22;3458;53.678;14.080;2023-11-22T07:35:17;0.30;99.90
6841;DHT22;3458;53.678;14.080;2023-11-22T07:37:45;0.40;99.90
6841;DHT22;3458;53.678;14.080;2023-11-22T07:40:12;0.40;99.90
6841;DHT22;3458;53.678;14.080;2023-11-22T07:42:39;0.40;99.90
6841;DHT22;3458;53.678;14.080;2023-11-22T07:45:05;0.50;99.90
6841;DHT22;3458;53.678;14.080;2023-11-22T07:47:31;0.50;99.90
6841;DHT22;3458;53.678;14.080;2023-11-22T07:49:56;0.50;99.90
6841;DHT22;3458;53.678;14.080;2023-11-22T07:52:23;0.50;99.90
6841;DHT22;3458;53.678;14.080;2023-11-22T07:54:55;0.60;99.90
6841;DHT22;3458;53.678;14.080;2023-11-22T07:57:21;0.60;99.90
6841;DHT22;3458;53.678;14.080;2023-11-22T07:59:48;0.60;99.90
6841;DHT22;3458;53.678;14.080;2023-11-22T08:02:14;0.60;99.90
6841;DHT22;3458;53.678;14.080;2023-11-22T08:04:42;0.70;99.90
6841;DHT22;3458;53.678;14.080;2023-11-22T08:07:10;0.80;99.90
6841;DHT22;3458;53.678;14.080;2023-11-22T08:09:36;0.80;99.90
6841;DHT22;3458;53.678;14.080;2023-11-22T08:12:02;0.90;99.90
6841;DHT22;3458;53.678;14.080;2023-11-22T08:14:28;0.90;99.90
6841;DHT22;3458;53.678;14.080;2023-11-22T08:16:54;1.00;99.90
6841;DHT22;3458;53.678;14.080;2023-11-22T08:19:19;0.90;99.90
6841;DHT22;3458;53.678;14.080;2023-11-22T08:21:45;1.00;99.90
6841;DHT22;3458;53.678;14.080;2023-11-22T08:24:10;1.00;99.90
6841;DHT22;3458;53.678;14.080;2023-11-22T08:26:38;1.00;99.90
6841;DHT22;3458;53.678;14.080;2023-11-22T08:29:04;1.00;99.90
6841;DHT22;3458;53.678;14.080;2023-11-22T08:31:30;1.00;99.90
6841;DHT22;3458;53.678;14.080;2023-11-22T08:33:55;1.00;99.90
6841;DHT22;3458;53.678;14.080;2023-11-22T08:36:22;1.10;99.90
6841;DHT22;3458;53.678;14.080;2023-11-22T08:38:49;1.20;99.90
6841;DHT22;3458;53.678;14.080;2023-11-22T08:41:14;1.30;99.90
6841;DHT22;3458;53.678;14.080;2023-11-22T08:43:40;1.40;99.90
6841;DHT22;3458;53.678;14.080;2023-11-22T08:46:06;1.50;99.90
6841;DHT22;3458;53.678;14.080;2023-11-22T08:48:32;1.60;99.90
6841;DHT22;3458;53.678;14.080;2023-11-22T08:50:58;1.70;99.90
6841;DHT22;3458;53.678;14.080;2023-11-22T08:53:24;1.70;99.90
6841;DHT22;3458;53.678;14.080;2023-11-22T08:55:49;1.70;99.90
6841;DHT22;3458;53.678;14.080;2023-11-22T08:58:15;1.70;99.90
6841;DHT22;3458;53.678;14.080;2023-11-22T09:00:41;1.70;99.90
6841;DHT22;3458;53.678;14.080;2023-11-22T09:03:10;1.70;99.90
6841;DHT22;3458;53.678;14.080;2023-11-22T09:05:41;1.90;99.90
6841;DHT22;3458;53.678;14.080;2023-11-22T09:08:08;2.00;99.90
6841;DHT22;3458;53.678;14.080;2023-11-22T09:10:38;2.20;99.90
6841;DHT22;3458;53.678;14.080;2023-11-22T09:13:04;2.30;99.90
6841;DHT22;3458;53.678;14.080;2023-11-22T09:15:31;2.30;99.90
6841;DHT22;3458;53.678;14.080;2023-11-22T09:17:59;2.40;99.90
6841;DHT22;3458;53.678;14.080;2023-11-22T09:20:24;2.50;99.90
6841;DHT22;3458;53.678;14.080;2023-11-22T09:22:51;2.60;99.90
6841;DHT22;3458;53.678;14.080;2023-11-22T09:25:19;2.70;99.90
6841;DHT22;3458;53.678;14.080;2023-11-22T09:27:52;2.80;99.90
6841;DHT22;3458;53.678;14.080;2023-11-22T09:30:22;2.90;99.90
6841;DHT22;3458;53.678;14.080;2023-11-22T09:33:18;3.00;99.90
6841;DHT22;3458;53.678;14.080;2023-11-22T09:35:46;3.20;99.90
6841;DHT22;3458;53.678;14.080;2023-11-22T09:38:13;3.30;99.90
6841;DHT22;3458;53.678;14.080;2023-11-22T09:40:41;3.40;99.90
6841;DHT22;3458;53.678;14.080;2023-11-22T09:43:07;3.50;99.90
6841;DHT22;3458;53.678;14.080;2023-11-22T09:45:33;3.60;99.90
6841;DHT22;3458;53.678;14.080;2023-11-22T09:48:02;3.80;99.90
6841;DHT22;3458;53.678;14.080;2023-11-22T09:50:43;3.90;99.90
6841;DHT22;3458;53.678;14.080;2023-11-22T09:53:22;4.00;99.90
6841;DHT22;3458;53.678;14.080;2023-11-22T09:55:48;4.10;99.90
6841;DHT22;3458;53.678;14.080;2023-11-22T09:58:14;4.20;99.90
6841;DHT22;3458;53.678;14.080;2023-11-22T10:00:41;4.20;99.90
6841;DHT22;3458;53.678;14.080;2023-11-22T10:03:08;4.20;98.60
6841;DHT22;3458;53.678;14.080;2023-11-22T10:05:34;4.10;96.80
6841;DHT22;3458;53.678;14.080;2023-11-22T10:08:00;4.10;96.10
6841;DHT22;3458;53.678;14.080;2023-11-22T10:10:26;4.10;95.30
6841;DHT22;3458;53.678;14.080;2023-11-22T10:12:55;4.10;95.00
6841;DHT22;3458;53.678;14.080;2023-11-22T10:15:21;4.10;94.10
6841;DHT22;3458;53.678;14.080;2023-11-22T10:17:58;4.10;93.90
6841;DHT22;3458;53.678;14.080;2023-11-22T10:20:43;4.10;93.10
6841;DHT22;3458;53.678;14.080;2023-11-22T10:23:13;4.10;92.70
6841;DHT22;3458;53.678;14.080;2023-11-22T10:25:49;4.10;93.30
6841;DHT22;3458;53.678;14.080;2023-11-22T10:28:17;4.10;92.50
6841;DHT22;3458;53.678;14.080;2023-11-22T10:30:44;4.10;92.00
6841;DHT22;3458;53.678;14.080;2023-11-22T10:33:10;4.00;92.10
6841;DHT22;3458;53.678;14.080;2023-11-22T10:35:46;4.00;92.10
6841;DHT22;3458;53.678;14.080;2023-11-22T10:38:15;4.00;92.20
6841;DHT22;3458;53.678;14.080;2023-11-22T10:40:40;4.10;92.20
6841;DHT22;3458;53.678;14.080;2023-11-22T10:43:07;4.10;92.60
6841;DHT22;3458;53.678;14.080;2023-11-22T10:45:34;4.10;92.40
6841;DHT22;3458;53.678;14.080;2023-11-22T10:48:00;4.20;92.60
6841;DHT22;3458;53.678;14.080;2023-11-22T10:50:26;4.30;92.40
6841;DHT22;3458;53.678;14.080;2023-11-22T10:52:57;4.30;92.20
6841;DHT22;3458;53.678;14.080;2023-11-22T10:55:26;4.40;91.90
6841;DHT22;3458;53.678;14.080;2023-11-22T10:57:55;4.50;91.50
6841;DHT22;3458;53.678;14.080;2023-11-22T11:00:22;4.50;91.50
6841;DHT22;3458;53.678;14.080;2023-11-22T11:02:51;4.50;90.40
6841;DHT22;3458;53.678;14.080;2023-11-22T11:05:21;4.50;90.20
6841;DHT22;3458;53.678;14.080;2023-11-22T11:08:02;4.60;90.60
6841;DHT22;3458;53.678;14.080;2023-11-22T11:10:28;4.60;89.50
6841;DHT22;3458;53.678;14.080;2023-11-22T11:12:55;4.60;87.90
6841;DHT22;3458;53.678;14.080;2023-11-22T11:15:21;4.50;87.70
6841;DHT22;3458;53.678;14.080;2023-11-22T11:17:47;4.50;87.00
6841;DHT22;3458;53.678;14.080;2023-11-22T11:20:18;4.40;87.40
6841;DHT22;3458;53.678;14.080;2023-11-22T11:22:47;4.40;88.20
6841;DHT22;3458;53.678;14.080;2023-11-22T11:25:15;4.40;89.50
6841;DHT22;3458;53.678;14.080;2023-11-22T11:27:41;4.30;89.70
6841;DHT22;3458;53.678;14.080;2023-11-22T11:30:48;4.30;90.00
6841;DHT22;3458;53.678;14.080;2023-11-22T11:33:28;4.30;88.40
6841;DHT22;3458;53.678;14.080;2023-11-22T11:35:57;4.30;89.20
6841;DHT22;3458;53.678;14.080;2023-11-22T11:38:30;4.30;89.20
6841;DHT22;3458;53.678;14.080;2023-11-22T11:41:09;4.40;87.60
6841;DHT22;3458;53.678;14.080;2023-11-22T11:43:46;4.40;86.00
6841;DHT22;3458;53.678;14.080;2023-11-22T11:46:12;4.40;84.90
6841;DHT22;3458;53.678;14.080;2023-11-22T11:48:42;4.40;82.40
6841;DHT22;3458;53.678;14.080;2023-11-22T11:51:09;4.30;80.30
6841;DHT22;3458;53.678;14.080;2023-11-22T11:53:37;4.30;78.00
6841;DHT22;3458;53.678;14.080;2023-11-22T11:56:03;4.30;76.90
6841;DHT22;3458;53.678;14.080;2023-11-22T11:58:28;4.30;77.40
6841;DHT22;3458;53.678;14.080;2023-11-22T12:00:54;4.30;77.10
6841;DHT22;3458;53.678;14.080;2023-11-22T12:03:20;4.30;77.10
6841;DHT22;3458;53.678;14.080;2023-11-22T12:05:47;4.30;78.20
6841;DHT22;3458;53.678;14.080;2023-11-22T12:08:14;4.30;79.10
6841;DHT22;3458;53.678;14.080;2023-11-22T12:10:44;4.40;80.20
6841;DHT22;3458;53.678;14.080;2023-11-22T12:13:17;4.30;80.70
6841;DHT22;3458;53.678;14.080;2023-11-22T12:15:44;4.30;80.50
6841;DHT22;3458;53.678;14.080;2023-11-22T12:18:10;4.30;80.20
6841;DHT22;3458;53.678;14.080;2023-11-22T12:20:37;4.30;80.80
6841;DHT22;3458;53.678;14.080;2023-11-22T12:23:03;4.20;81.50
6841;DHT22;3458;53.678;14.080;2023-11-22T12:25:29;4.30;81.40
6841;DHT22;3458;53.678;14.080;2023-11-22T12:27:55;4.20;82.20
6841;DHT22;3458;53.678;14.080;2023-11-22T12:30:31;4.30;81.90
6841;DHT22;3458;53.678;14.080;2023-11-22T12:33:04;4.30;81.40
6841;DHT22;3458;53.678;14.080;2023-11-22T12:35:31;4.20;81.30
6841;DHT22;3458;53.678;14.080;2023-11-22T12:38:00;4.20;82.30
6841;DHT22;3458;53.678;14.080;2023-11-22T12:40:29;4.20;83.30
6841;DHT22;3458;53.678;14.080;2023-11-22T12:42:59;4.20;82.90
6841;DHT22;3458;53.678;14.080;2023-11-22T12:45:28;4.20;82.90
6841;DHT22;3458;53.678;14.080;2023-11-22T12:47:55;4.10;82.70
6841;DHT22;3458;53.678;14.080;2023-11-22T12:52:59;4.10;82.40
6841;DHT22;3458;53.678;14.080;2023-11-22T12:55:32;4.10;83.00
6841;DHT22;3458;53.678;14.080;2023-11-22T12:57:58;4.00;83.40
6841;DHT22;3458;53.678;14.080;2023-11-22T13:00:31;4.00;83.70
6841;DHT22;3458;53.678;14.080;2023-11-22T13:02:58;4.00;83.90
6841;DHT22;3458;53.678;14.080;2023-11-22T13:05:24;4.00;84.00
6841;DHT22;3458;53.678;14.080;2023-11-22T13:07:49;4.00;84.40
6841;DHT22;3458;53.678;14.080;2023-11-22T13:10:15;4.00;84.40
6841;DHT22;3458;53.678;14.080;2023-11-22T13:12:42;3.90;84.90
6841;DHT22;3458;53.678;14.080;2023-11-22T13:15:12;3.90;84.90
6841;DHT22;3458;53.678;14.080;2023-11-22T13:17:38;3.90;85.10
6841;DHT22;3458;53.678;14.080;2023-11-22T13:20:07;3.90;85.40
6841;DHT22;3458;53.678;14.080;2023-11-22T13:22:40;3.80;86.60
6841;DHT22;3458;53.678;14.080;2023-11-22T13:25:08;3.70;87.50
6841;DHT22;3458;53.678;14.080;2023-11-22T13:27:35;3.70;88.50
6841;DHT22;3458;53.678;14.080;2023-11-22T13:30:01;3.70;89.10
6841;DHT22;3458;53.678;14.080;2023-11-22T13:32:27;3.70;89.30
6841;DHT22;3458;53.678;14.080;2023-11-22T13:34:52;3.70;89.90
6841;DHT22;3458;53.678;14.080;2023-11-22T13:37:26;3.60;90.20
6841;DHT22;3458;53.678;14.080;2023-11-22T13:39:54;3.60;90.50
6841;DHT22;3458;53.678;14.080;2023-11-22T13:42:20;3.60;90.70
6841;DHT22;3458;53.678;14.080;2023-11-22T13:44:45;3.60;90.90
6841;DHT22;3458;53.678;14.080;2023-11-22T13:47:11;3.60;91.10
6841;DHT22;3458;53.678;14.080;2023-11-22T13:49:39;3.60;91.10
6841;DHT22;3458;53.678;14.080;2023-11-22T13:52:05;3.50;91.40
6841;DHT22;3458;53.678;14.080;2023-11-22T13:54:30;3.50;91.50
6841;DHT22;3458;53.678;14.080;2023-11-22T13:56:58;3.50;91.70
6841;DHT22;3458;53.678;14.080;2023-11-22T13:59:23;3.50;91.90
6841;DHT22;3458;53.678;14.080;2023-11-22T14:01:49;3.50;92.00
6841;DHT22;3458;53.678;14.080;2023-11-22T14:04:15;3.50;91.90
6841;DHT22;3458;53.678;14.080;2023-11-22T14:06:40;3.50;92.00
6841;DHT22;3458;53.678;14.080;2023-11-22T14:09:06;3.40;91.90
6841;DHT22;3458;53.678;14.080;2023-11-22T14:11:34;3.50;92.00
6841;DHT22;3458;53.678;14.080;2023-11-22T14:14:01;3.40;91.80
6841;DHT22;3458;53.678;14.080;2023-11-22T14:16:29;3.30;91.90
6841;DHT22;3458;53.678;14.080;2023-11-22T14:18:56;3.30;92.10
6841;DHT22;3458;53.678;14.080;2023-11-22T14:21:23;3.30;92.30
6841;DHT22;3458;53.678;14.080;2023-11-22T14:23:50;3.20;92.30
6841;DHT22;3458;53.678;14.080;2023-11-22T14:26:15;3.20;92.60
6841;DHT22;3458;53.678;14.080;2023-11-22T14:28:41;3.20;92.90
6841;DHT22;3458;53.678;14.080;2023-11-22T14:31:07;3.20;92.90
6841;DHT22;3458;53.678;14.080;2023-11-22T14:33:32;3.10;93.00
6841;DHT22;3458;53.678;14.080;2023-11-22T14:35:58;3.10;93.10
6841;DHT22;3458;53.678;14.080;2023-11-22T14:38:24;3.10;93.20
6841;DHT22;3458;53.678;14.080;2023-11-22T14:40:50;3.00;93.40
6841;DHT22;3458;53.678;14.080;2023-11-22T14:43:15;3.10;93.60
6841;DHT22;3458;53.678;14.080;2023-11-22T14:45:41;3.10;93.80
6841;DHT22;3458;53.678;14.080;2023-11-22T14:48:07;3.10;94.00
6841;DHT22;3458;53.678;14.080;2023-11-22T14:50:34;3.10;94.10
6841;DHT22;3458;53.678;14.080;2023-11-22T14:52:59;3.10;94.10
6841;DHT22;3458;53.678;14.080;2023-11-22T14:55:25;3.10;94.10
6841;DHT22;3458;53.678;14.080;2023-11-22T14:57:51;3.10;94.10
6841;DHT22;3458;53.678;14.080;2023-11-22T15:00:19;3.10;94.10
6841;DHT22;3458;53.678;14.080;2023-11-22T15:02:45;3.10;94.10
6841;DHT22;3458;53.678;14.080;2023-11-22T15:05:17;3.00;94.00
6841;DHT22;3458;53.678;14.080;2023-11-22T15:07:43;3.00;94.10
6841;DHT22;3458;53.678;14.080;2023-11-22T15:10:10;3.10;94.20
6841;DHT22;3458;53.678;14.080;2023-11-22T15:12:36;3.00;94.20
6841;DHT22;3458;53.678;14.080;2023-11-22T15:15:02;3.00;94.30
6841;DHT22;3458;53.678;14.080;2023-11-22T15:17:28;3.10;94.30
6841;DHT22;3458;53.678;14.080;2023-11-22T15:19:54;3.00;94.40
6841;DHT22;3458;53.678;14.080;2023-11-22T15:22:19;3.00;94.50
6841;DHT22;3458;53.678;14.080;2023-11-22T15:24:45;3.00;94.50
6841;DHT22;3458;53.678;14.080;2023-11-22T15:27:10;3.00;94.20
6841;DHT22;3458;53.678;14.080;2023-11-22T15:29:36;2.90;94.20
6841;DHT22;3458;53.678;14.080;2023-11-22T15:32:01;3.00;94.30
6841;DHT22;3458;53.678;14.080;2023-11-22T15:34:28;2.90;94.20
6841;DHT22;3458;53.678;14.080;2023-11-22T15:36:53;2.90;94.10
6841;DHT22;3458;53.678;14.080;2023-11-22T15:39:19;2.90;94.00
6841;DHT22;3458;53.678;14.080;2023-11-22T15:41:47;2.80;93.60
6841;DHT22;3458;53.678;14.080;2023-11-22T15:44:13;2.80;93.90
6841;DHT22;3458;53.678;14.080;2023-11-22T15:46:39;2.80;93.80
6841;DHT22;3458;53.678;14.080;2023-11-22T15:49:07;2.90;93.70
6841;DHT22;3458;53.678;14.080;2023-11-22T15:51:33;2.80;93.50
6841;DHT22;3458;53.678;14.080;2023-11-22T15:53:58;2.80;93.50
6841;DHT22;3458;53.678;14.080;2023-11-22T15:56:24;2.80;93.40
6841;DHT22;3458;53.678;14.080;2023-11-22T15:58:51;2.80;93.30
6841;DHT22;3458;53.678;14.080;2023-11-22T16:01:17;2.80;93.00
6841;DHT22;3458;53.678;14.080;2023-11-22T16:03:43;2.80;92.80